Map

Track Data

SID SEASON NUMBER BASIN SUBBASIN NAME ISO_TIME NATURE LAT LON WMO_WIND WMO_PRES WMO_AGENCY TRACK_TYPE DIST2LAND LANDFALL IFLAG USA_AGENCY USA_ATCF_ID USA_LAT USA_LON USA_RECORD USA_STATUS USA_WIND USA_PRES USA_SSHS USA_R34_NE USA_R34_SE USA_R34_SW USA_R34_NW USA_R50_NE USA_R50_SE USA_R50_SW USA_R50_NW USA_R64_NE USA_R64_SE USA_R64_SW USA_R64_NW USA_POCI USA_ROCI USA_RMW USA_EYE TOKYO_LAT TOKYO_LON TOKYO_GRADE TOKYO_WIND TOKYO_PRES TOKYO_R50_DIR TOKYO_R50_LONG TOKYO_R50_SHORT TOKYO_R30_DIR TOKYO_R30_LONG TOKYO_R30_SHORT TOKYO_LAND CMA_LAT CMA_LON CMA_CAT CMA_WIND CMA_PRES HKO_LAT HKO_LON HKO_CAT HKO_WIND HKO_PRES NEWDELHI_LAT NEWDELHI_LON NEWDELHI_GRADE NEWDELHI_WIND NEWDELHI_PRES NEWDELHI_CI NEWDELHI_DP NEWDELHI_POCI REUNION_LAT REUNION_LON REUNION_TYPE REUNION_WIND REUNION_PRES REUNION_TNUM REUNION_CI REUNION_RMW REUNION_R34_NE REUNION_R34_SE REUNION_R34_SW REUNION_R34_NW REUNION_R50_NE REUNION_R50_SE REUNION_R50_SW REUNION_R50_NW REUNION_R64_NE REUNION_R64_SE REUNION_R64_SW REUNION_R64_NW BOM_LAT BOM_LON BOM_TYPE BOM_WIND BOM_PRES BOM_TNUM BOM_CI BOM_RMW BOM_R34_NE BOM_R34_SE BOM_R34_SW BOM_R34_NW BOM_R50_NE BOM_R50_SE BOM_R50_SW BOM_R50_NW BOM_R64_NE BOM_R64_SE BOM_R64_SW BOM_R64_NW BOM_ROCI BOM_POCI BOM_EYE BOM_POS_METHOD BOM_PRES_METHOD NADI_LAT NADI_LON NADI_CAT NADI_WIND NADI_PRES WELLINGTON_LAT WELLINGTON_LON WELLINGTON_WIND WELLINGTON_PRES DS824_LAT DS824_LON DS824_STAGE DS824_WIND DS824_PRES TD9636_LAT TD9636_LON TD9636_STAGE TD9636_WIND TD9636_PRES TD9635_LAT TD9635_LON TD9635_WIND TD9635_PRES TD9635_ROCI NEUMANN_LAT NEUMANN_LON NEUMANN_CLASS NEUMANN_WIND NEUMANN_PRES MLC_LAT MLC_LON MLC_CLASS MLC_WIND MLC_PRES USA_GUST BOM_GUST BOM_GUST_PER REUNION_GUST REUNION_GUST_PER USA_SEAHGT USA_SEARAD_NE USA_SEARAD_SE USA_SEARAD_SW USA_SEARAD_NW STORM_SPEED STORM_DIR
1981239N21267 1981 71 NA GM NOT_NAMED 1981-08-26 18:00:00 TS 20.7000 -92.6000 20 hurdat_atl main 219 219 O_____________ hurdat_atl AL121981 20.7000 -92.6000 TD 20 -1 11 288
1981239N21267 1981 71 NA GM NOT_NAMED 1981-08-26 21:00:00 TS 20.8655 -93.1446 main 260 260 P_____________ AL121981 20.8655 -93.1446 TD 20 -1 10 288
1981239N21267 1981 71 NA GM NOT_NAMED 1981-08-27 00:00:00 TS 21.0000 -93.6000 20 hurdat_atl main 284 284 O_____________ hurdat_atl AL121981 21.0000 -93.6000 TD 20 -1 8 287
1981239N21267 1981 71 NA GM NOT_NAMED 1981-08-27 03:00:00 TS 21.0922 -93.9153 main 292 271 P_____________ AL121981 21.0922 -93.9153 TD 22 -1 6 290
1981239N21267 1981 71 NA GM NOT_NAMED 1981-08-27 06:00:00 TS 21.2000 -94.2000 25 hurdat_atl main 271 251 O_____________ hurdat_atl AL121981 21.2000 -94.2000 TD 25 -1 7 295
1981239N21267 1981 71 NA GM NOT_NAMED 1981-08-27 09:00:00 TS 21.3849 -94.5775 main 251 235 P_____________ AL121981 21.3849 -94.5775 TD 27 -1 8 298
1981239N21267 1981 71 NA GM NOT_NAMED 1981-08-27 12:00:00 TS 21.6000 -95.0000 30 hurdat_atl main 235 197 O_____________ hurdat_atl AL121981 21.6000 -95.0000 TD 30 -1 9 298
1981239N21267 1981 71 NA GM NOT_NAMED 1981-08-27 15:00:00 TS 21.8075 -95.4500 main 187 151 P_____________ AL121981 21.8075 -95.4500 TD 30 -1 9 296
1981239N21267 1981 71 NA GM NOT_NAMED 1981-08-27 18:00:00 TS 22.0000 -95.9000 30 hurdat_atl main 151 117 O_____________ hurdat_atl AL121981 22.0000 -95.9000 TD 30 -1 9 292
1981239N21267 1981 71 NA GM NOT_NAMED 1981-08-27 21:00:00 TS 22.1425 -96.3302 main 117 98 P_____________ AL121981 22.1425 -96.3302 TD 30 -1 8 292
1981239N21267 1981 71 NA GM NOT_NAMED 1981-08-28 00:00:00 TS 22.3000 -96.7000 30 hurdat_atl main 98 92 O_____________ hurdat_atl AL121981 22.3000 -96.7000 TD 30 -1 7 306
1981239N21267 1981 71 NA GM NOT_NAMED 1981-08-28 03:00:00 TS 22.5572 -96.9501 main 82 61 P_____________ AL121981 22.5572 -96.9501 TD 30 -1 7 317
1981239N21267 1981 71 NA GM NOT_NAMED 1981-08-28 06:00:00 TS 22.8000 -97.2000 30 hurdat_atl main 61 20 O_____________ hurdat_atl AL121981 22.8000 -97.2000 TD 30 -1 7 296
1981239N21267 1981 71 NA GM NOT_NAMED 1981-08-28 09:00:00 TS 22.8628 -97.6228 main 20 0 P_____________ AL121981 22.8628 -97.6228 TD 27 -1 8 285
1981239N21267 1981 71 NA NA NOT_NAMED 1981-08-28 12:00:00 TS 23.0000 -98.0000 25 hurdat_atl main 0 0 O_____________ hurdat_atl AL121981 23.0000 -98.0000 TD 25 -1 8 322
1981239N21267 1981 71 NA NA NOT_NAMED 1981-08-28 15:00:00 TS 23.4623 -98.1303 main 0 0 P_____________ AL121981 23.4623 -98.1303 TD 25 -1 10 349
1981239N21267 1981 71 NA NA NOT_NAMED 1981-08-28 18:00:00 TS 24.0000 -98.2000 25 hurdat_atl main 0 0 O_____________ hurdat_atl AL121981 24.0000 -98.2000 TD 25 -1 10 345
1981239N21267 1981 71 NA NA NOT_NAMED 1981-08-28 21:00:00 TS 24.3876 -98.3999 main 0 0 P_____________ AL121981 24.3876 -98.3999 TD 25 -1 8 332
1981239N21267 1981 71 NA NA NOT_NAMED 1981-08-29 00:00:00 TS 24.7000 -98.6000 25 hurdat_atl main 0 0 O_____________ hurdat_atl AL121981 24.7000 -98.6000 TD 25 -1 6 333
1981239N21267 1981 71 NA NA NOT_NAMED 1981-08-29 03:00:00 TS 24.9424 -98.7152 main 0 0 P_____________ AL121981 24.9424 -98.7152 TD 25 -1 5 340
1981239N21267 1981 71 NA NA NOT_NAMED 1981-08-29 06:00:00 TS 25.2000 -98.8000 25 hurdat_atl main 0 0 O_____________ hurdat_atl AL121981 25.2000 -98.8000 TD 25 -1 6 345
1981239N21267 1981 71 NA NA NOT_NAMED 1981-08-29 09:00:00 TS 25.5650 -98.8947 main 0 0 P_____________ AL121981 25.5650 -98.8947 TD -1 8 347
1981239N21267 1981 71 NA NA NOT_NAMED 1981-08-29 12:00:00 TS 26.0000 -99.0000 hurdat_atl main 0 O_____________ hurdat_atl AL121981 26.0000 -99.0000 TD -1 9 347

About IBTrACS Database

This database is a web-friendly format of International Best Track Archive for Climate Stewardship (IBTrACS), a global best track data archive curated by NOAA dating back to 1842.

Updated: 2021-10-27